sensor_id;sensor_type;location;lat;lon;timestamp;P1;durP1;ratioP1;P2;durP2;ratioP2
77202;SDS011;66327;50.096;8.498;2024-02-26T00:00:45;2.15;;;1.10;;
77202;SDS011;66327;50.096;8.498;2024-02-26T00:03:12;2.58;;;1.08;;
77202;SDS011;66327;50.096;8.498;2024-02-26T00:05:39;2.45;;;1.38;;
77202;SDS011;66327;50.096;8.498;2024-02-26T00:08:05;2.33;;;1.05;;
77202;SDS011;66327;50.096;8.498;2024-02-26T00:10:31;2.72;;;1.33;;
77202;SDS011;66327;50.096;8.498;2024-02-26T00:12:58;3.22;;;1.40;;
77202;SDS011;66327;50.096;8.498;2024-02-26T00:15:24;2.83;;;1.27;;
77202;SDS011;66327;50.096;8.498;2024-02-26T00:17:51;2.33;;;1.20;;
77202;SDS011;66327;50.096;8.498;2024-02-26T00:20:17;2.22;;;1.20;;
77202;SDS011;66327;50.096;8.498;2024-02-26T00:22:44;2.05;;;1.17;;
77202;SDS011;66327;50.096;8.498;2024-02-26T00:25:10;1.92;;;1.20;;
77202;SDS011;66327;50.096;8.498;2024-02-26T00:27:38;1.92;;;1.13;;
77202;SDS011;66327;50.096;8.498;2024-02-26T00:30:06;2.25;;;1.25;;
77202;SDS011;66327;50.096;8.498;2024-02-26T00:32:33;1.80;;;1.27;;
77202;SDS011;66327;50.096;8.498;2024-02-26T00:34:59;2.05;;;1.20;;
77202;SDS011;66327;50.096;8.498;2024-02-26T00:37:26;1.88;;;1.15;;
77202;SDS011;66327;50.096;8.498;2024-02-26T00:39:52;2.47;;;1.20;;
77202;SDS011;66327;50.096;8.498;2024-02-26T00:42:20;2.65;;;1.35;;
77202;SDS011;66327;50.096;8.498;2024-02-26T00:44:46;2.35;;;1.25;;
77202;SDS011;66327;50.096;8.498;2024-02-26T00:47:12;3.30;;;1.40;;
77202;SDS011;66327;50.096;8.498;2024-02-26T00:49:39;2.45;;;1.20;;
77202;SDS011;66327;50.096;8.498;2024-02-26T00:52:05;1.77;;;1.30;;
77202;SDS011;66327;50.096;8.498;2024-02-26T00:54:31;3.60;;;1.48;;
77202;SDS011;66327;50.096;8.498;2024-02-26T00:56:58;2.55;;;1.35;;
77202;SDS011;66327;50.096;8.498;2024-02-26T00:59:24;2.78;;;1.25;;
77202;SDS011;66327;50.096;8.498;2024-02-26T01:01:50;2.92;;;1.52;;
77202;SDS011;66327;50.096;8.498;2024-02-26T01:04:17;2.35;;;1.30;;
77202;SDS011;66327;50.096;8.498;2024-02-26T01:06:43;2.40;;;1.35;;
77202;SDS011;66327;50.096;8.498;2024-02-26T01:09:09;2.70;;;1.30;;
77202;SDS011;66327;50.096;8.498;2024-02-26T01:11:36;2.08;;;1.40;;
77202;SDS011;66327;50.096;8.498;2024-02-26T01:14:02;2.22;;;1.30;;
77202;SDS011;66327;50.096;8.498;2024-02-26T01:16:30;3.80;;;1.20;;
77202;SDS011;66327;50.096;8.498;2024-02-26T01:18:57;2.17;;;1.17;;
77202;SDS011;66327;50.096;8.498;2024-02-26T01:21:23;2.70;;;1.40;;
77202;SDS011;66327;50.096;8.498;2024-02-26T01:23:49;2.55;;;1.23;;
77202;SDS011;66327;50.096;8.498;2024-02-26T01:26:16;4.07;;;1.50;;
77202;SDS011;66327;50.096;8.498;2024-02-26T01:28:42;2.10;;;1.10;;
77202;SDS011;66327;50.096;8.498;2024-02-26T01:31:09;2.55;;;0.75;;
77202;SDS011;66327;50.096;8.498;2024-02-26T01:33:35;2.35;;;1.30;;
77202;SDS011;66327;50.096;8.498;2024-02-26T01:36:02;2.55;;;1.35;;
77202;SDS011;66327;50.096;8.498;2024-02-26T01:38:29;3.50;;;1.50;;
77202;SDS011;66327;50.096;8.498;2024-02-26T01:40:55;2.00;;;1.17;;
77202;SDS011;66327;50.096;8.498;2024-02-26T01:43:21;2.85;;;1.35;;
77202;SDS011;66327;50.096;8.498;2024-02-26T01:45:47;2.78;;;1.52;;
77202;SDS011;66327;50.096;8.498;2024-02-26T01:48:14;2.78;;;1.50;;
77202;SDS011;66327;50.096;8.498;2024-02-26T01:50:40;4.18;;;1.60;;
77202;SDS011;66327;50.096;8.498;2024-02-26T01:53:07;3.75;;;1.75;;
77202;SDS011;66327;50.096;8.498;2024-02-26T01:55:34;2.25;;;1.27;;
77202;SDS011;66327;50.096;8.498;2024-02-26T01:58:00;1.58;;;1.00;;
77202;SDS011;66327;50.096;8.498;2024-02-26T02:00:27;2.42;;;1.30;;
77202;SDS011;66327;50.096;8.498;2024-02-26T02:02:54;2.00;;;0.80;;
77202;SDS011;66327;50.096;8.498;2024-02-26T02:05:21;2.70;;;1.33;;
77202;SDS011;66327;50.096;8.498;2024-02-26T02:07:48;1.48;;;0.88;;
77202;SDS011;66327;50.096;8.498;2024-02-26T02:10:15;2.97;;;1.50;;
77202;SDS011;66327;50.096;8.498;2024-02-26T02:12:43;3.58;;;1.40;;
77202;SDS011;66327;50.096;8.498;2024-02-26T02:15:09;2.33;;;1.30;;
77202;SDS011;66327;50.096;8.498;2024-02-26T02:17:36;2.67;;;1.40;;
77202;SDS011;66327;50.096;8.498;2024-02-26T02:20:02;2.28;;;1.25;;
77202;SDS011;66327;50.096;8.498;2024-02-26T02:22:30;3.60;;;1.63;;
77202;SDS011;66327;50.096;8.498;2024-02-26T02:24:58;2.70;;;1.50;;
77202;SDS011;66327;50.096;8.498;2024-02-26T02:27:25;2.85;;;1.33;;
77202;SDS011;66327;50.096;8.498;2024-02-26T02:29:52;2.60;;;1.40;;
77202;SDS011;66327;50.096;8.498;2024-02-26T02:32:18;3.10;;;1.85;;
77202;SDS011;66327;50.096;8.498;2024-02-26T02:34:45;2.88;;;1.42;;
77202;SDS011;66327;50.096;8.498;2024-02-26T02:37:12;5.55;;;1.60;;
77202;SDS011;66327;50.096;8.498;2024-02-26T02:39:38;2.78;;;1.30;;
77202;SDS011;66327;50.096;8.498;2024-02-26T02:42:04;3.75;;;1.67;;
77202;SDS011;66327;50.096;8.498;2024-02-26T02:44:31;3.25;;;1.60;;
77202;SDS011;66327;50.096;8.498;2024-02-26T02:46:57;2.42;;;1.40;;
77202;SDS011;66327;50.096;8.498;2024-02-26T02:49:23;2.58;;;1.30;;
77202;SDS011;66327;50.096;8.498;2024-02-26T02:51:50;3.38;;;1.65;;
77202;SDS011;66327;50.096;8.498;2024-02-26T02:54:17;2.38;;;1.45;;
77202;SDS011;66327;50.096;8.498;2024-02-26T02:56:43;5.40;;;1.70;;
77202;SDS011;66327;50.096;8.498;2024-02-26T02:59:09;2.80;;;1.40;;
77202;SDS011;66327;50.096;8.498;2024-02-26T03:01:36;3.75;;;1.60;;
77202;SDS011;66327;50.096;8.498;2024-02-26T03:04:02;3.28;;;1.58;;
77202;SDS011;66327;50.096;8.498;2024-02-26T03:06:29;2.88;;;1.60;;
77202;SDS011;66327;50.096;8.498;2024-02-26T03:08:55;4.10;;;1.63;;
77202;SDS011;66327;50.096;8.498;2024-02-26T03:11:21;4.05;;;1.40;;
77202;SDS011;66327;50.096;8.498;2024-02-26T03:13:48;2.45;;;1.60;;
77202;SDS011;66327;50.096;8.498;2024-02-26T03:16:14;3.22;;;1.70;;
77202;SDS011;66327;50.096;8.498;2024-02-26T03:18:40;3.60;;;1.63;;
77202;SDS011;66327;50.096;8.498;2024-02-26T03:21:07;3.22;;;1.58;;
77202;SDS011;66327;50.096;8.498;2024-02-26T03:23:33;2.53;;;1.50;;
77202;SDS011;66327;50.096;8.498;2024-02-26T03:26:03;3.78;;;1.90;;
77202;SDS011;66327;50.096;8.498;2024-02-26T03:28:30;2.92;;;1.55;;
77202;SDS011;66327;50.096;8.498;2024-02-26T03:30:59;4.40;;;2.00;;
77202;SDS011;66327;50.096;8.498;2024-02-26T03:33:26;3.22;;;1.77;;
77202;SDS011;66327;50.096;8.498;2024-02-26T03:35:52;3.22;;;1.80;;
77202;SDS011;66327;50.096;8.498;2024-02-26T03:38:19;3.40;;;1.65;;
77202;SDS011;66327;50.096;8.498;2024-02-26T03:40:45;3.45;;;1.48;;
77202;SDS011;66327;50.096;8.498;2024-02-26T03:43:11;4.45;;;1.90;;
77202;SDS011;66327;50.096;8.498;2024-02-26T03:45:38;3.67;;;1.75;;
77202;SDS011;66327;50.096;8.498;2024-02-26T03:48:05;2.53;;;1.42;;
77202;SDS011;66327;50.096;8.498;2024-02-26T03:50:32;3.10;;;1.70;;
77202;SDS011;66327;50.096;8.498;2024-02-26T03:52:58;4.35;;;1.65;;
77202;SDS011;66327;50.096;8.498;2024-02-26T03:55:26;2.90;;;1.63;;
77202;SDS011;66327;50.096;8.498;2024-02-26T03:57:52;4.55;;;1.75;;
77202;SDS011;66327;50.096;8.498;2024-02-26T04:00:19;3.95;;;1.83;;
77202;SDS011;66327;50.096;8.498;2024-02-26T04:02:48;3.38;;;1.80;;
77202;SDS011;66327;50.096;8.498;2024-02-26T04:05:15;2.95;;;1.77;;
77202;SDS011;66327;50.096;8.498;2024-02-26T04:07:41;3.67;;;1.90;;
77202;SDS011;66327;50.096;8.498;2024-02-26T04:10:08;3.45;;;1.80;;
77202;SDS011;66327;50.096;8.498;2024-02-26T04:12:35;4.00;;;2.10;;
77202;SDS011;66327;50.096;8.498;2024-02-26T04:15:01;4.65;;;2.00;;
77202;SDS011;66327;50.096;8.498;2024-02-26T04:17:27;3.63;;;1.90;;
77202;SDS011;66327;50.096;8.498;2024-02-26T04:19:53;3.70;;;1.90;;
77202;SDS011;66327;50.096;8.498;2024-02-26T04:22:20;3.33;;;1.67;;
77202;SDS011;66327;50.096;8.498;2024-02-26T04:24:46;3.78;;;2.08;;
77202;SDS011;66327;50.096;8.498;2024-02-26T04:27:13;3.30;;;1.80;;
77202;SDS011;66327;50.096;8.498;2024-02-26T04:29:39;5.20;;;2.17;;
77202;SDS011;66327;50.096;8.498;2024-02-26T04:32:05;5.60;;;2.20;;
77202;SDS011;66327;50.096;8.498;2024-02-26T04:34:32;3.88;;;2.20;;
77202;SDS011;66327;50.096;8.498;2024-02-26T04:36:58;4.28;;;2.45;;
77202;SDS011;66327;50.096;8.498;2024-02-26T04:39:25;5.07;;;2.05;;
77202;SDS011;66327;50.096;8.498;2024-02-26T04:41:54;6.70;;;2.40;;
77202;SDS011;66327;50.096;8.498;2024-02-26T04:44:21;4.72;;;2.10;;
77202;SDS011;66327;50.096;8.498;2024-02-26T04:46:47;3.72;;;2.00;;
77202;SDS011;66327;50.096;8.498;2024-02-26T04:49:13;5.30;;;2.20;;
77202;SDS011;66327;50.096;8.498;2024-02-26T04:51:40;3.97;;;2.13;;
77202;SDS011;66327;50.096;8.498;2024-02-26T04:54:06;4.85;;;2.05;;
77202;SDS011;66327;50.096;8.498;2024-02-26T04:56:32;4.18;;;2.20;;
77202;SDS011;66327;50.096;8.498;2024-02-26T04:58:59;6.13;;;2.20;;
77202;SDS011;66327;50.096;8.498;2024-02-26T05:01:25;6.18;;;2.35;;
77202;SDS011;66327;50.096;8.498;2024-02-26T05:03:54;4.95;;;2.25;;
77202;SDS011;66327;50.096;8.498;2024-02-26T05:06:20;4.35;;;2.35;;
77202;SDS011;66327;50.096;8.498;2024-02-26T05:08:47;6.03;;;2.40;;
77202;SDS011;66327;50.096;8.498;2024-02-26T05:11:13;7.32;;;2.40;;
77202;SDS011;66327;50.096;8.498;2024-02-26T05:13:40;4.60;;;2.58;;
77202;SDS011;66327;50.096;8.498;2024-02-26T05:16:07;4.95;;;2.30;;
77202;SDS011;66327;50.096;8.498;2024-02-26T05:18:33;5.30;;;2.30;;
77202;SDS011;66327;50.096;8.498;2024-02-26T05:20:59;6.43;;;2.50;;
77202;SDS011;66327;50.096;8.498;2024-02-26T05:23:26;4.95;;;2.38;;
77202;SDS011;66327;50.096;8.498;2024-02-26T05:25:53;4.82;;;2.50;;
77202;SDS011;66327;50.096;8.498;2024-02-26T05:28:19;5.47;;;2.45;;
77202;SDS011;66327;50.096;8.498;2024-02-26T05:30:46;4.22;;;2.38;;
77202;SDS011;66327;50.096;8.498;2024-02-26T05:33:13;5.68;;;2.58;;
77202;SDS011;66327;50.096;8.498;2024-02-26T05:35:43;9.10;;;2.90;;
77202;SDS011;66327;50.096;8.498;2024-02-26T05:38:11;5.78;;;2.47;;
77202;SDS011;66327;50.096;8.498;2024-02-26T05:40:37;6.53;;;2.60;;
77202;SDS011;66327;50.096;8.498;2024-02-26T05:43:04;10.13;;;2.95;;
77202;SDS011;66327;50.096;8.498;2024-02-26T05:45:31;5.45;;;2.95;;
77202;SDS011;66327;50.096;8.498;2024-02-26T05:47:57;4.55;;;2.90;;
77202;SDS011;66327;50.096;8.498;2024-02-26T05:50:24;6.03;;;2.50;;
77202;SDS011;66327;50.096;8.498;2024-02-26T05:52:50;5.00;;;2.50;;
77202;SDS011;66327;50.096;8.498;2024-02-26T05:55:16;4.30;;;2.33;;
77202;SDS011;66327;50.096;8.498;2024-02-26T05:57:43;7.03;;;2.70;;
77202;SDS011;66327;50.096;8.498;2024-02-26T06:00:09;8.15;;;2.70;;
77202;SDS011;66327;50.096;8.498;2024-02-26T06:02:40;10.63;;;2.72;;
77202;SDS011;66327;50.096;8.498;2024-02-26T06:05:06;6.35;;;2.50;;
77202;SDS011;66327;50.096;8.498;2024-02-26T06:07:35;6.53;;;2.90;;
77202;SDS011;66327;50.096;8.498;2024-02-26T06:10:01;7.40;;;2.90;;
77202;SDS011;66327;50.096;8.498;2024-02-26T06:12:28;4.90;;;2.70;;
77202;SDS011;66327;50.096;8.498;2024-02-26T06:17:24;5.10;;;2.22;;
77202;SDS011;66327;50.096;8.498;2024-02-26T06:19:50;6.32;;;3.13;;
77202;SDS011;66327;50.096;8.498;2024-02-26T06:22:16;6.10;;;2.70;;
77202;SDS011;66327;50.096;8.498;2024-02-26T06:24:43;6.95;;;2.83;;
77202;SDS011;66327;50.096;8.498;2024-02-26T06:27:09;7.93;;;2.50;;
77202;SDS011;66327;50.096;8.498;2024-02-26T06:29:36;6.95;;;2.75;;
77202;SDS011;66327;50.096;8.498;2024-02-26T06:32:02;6.25;;;2.90;;
77202;SDS011;66327;50.096;8.498;2024-02-26T06:34:28;6.07;;;3.22;;
77202;SDS011;66327;50.096;8.498;2024-02-26T06:36:55;7.80;;;3.20;;
77202;SDS011;66327;50.096;8.498;2024-02-26T06:39:21;7.78;;;3.20;;
77202;SDS011;66327;50.096;8.498;2024-02-26T06:41:47;4.18;;;2.33;;
77202;SDS011;66327;50.096;8.498;2024-02-26T06:44:14;4.85;;;2.70;;
77202;SDS011;66327;50.096;8.498;2024-02-26T06:46:40;7.05;;;2.72;;
77202;SDS011;66327;50.096;8.498;2024-02-26T06:49:06;8.55;;;3.40;;
77202;SDS011;66327;50.096;8.498;2024-02-26T06:51:33;6.82;;;3.03;;
77202;SDS011;66327;50.096;8.498;2024-02-26T06:53:59;7.03;;;3.10;;
77202;SDS011;66327;50.096;8.498;2024-02-26T06:56:26;7.32;;;3.33;;
77202;SDS011;66327;50.096;8.498;2024-02-26T06:58:52;7.25;;;3.88;;
77202;SDS011;66327;50.096;8.498;2024-02-26T07:01:18;5.97;;;3.60;;
77202;SDS011;66327;50.096;8.498;2024-02-26T07:03:45;7.97;;;3.85;;
77202;SDS011;66327;50.096;8.498;2024-02-26T07:06:11;8.30;;;3.15;;
77202;SDS011;66327;50.096;8.498;2024-02-26T07:08:39;7.90;;;3.10;;
77202;SDS011;66327;50.096;8.498;2024-02-26T07:11:08;7.55;;;3.50;;
77202;SDS011;66327;50.096;8.498;2024-02-26T07:13:36;6.72;;;3.20;;
77202;SDS011;66327;50.096;8.498;2024-02-26T07:16:02;7.10;;;3.33;;
77202;SDS011;66327;50.096;8.498;2024-02-26T07:18:29;7.22;;;2.97;;
77202;SDS011;66327;50.096;8.498;2024-02-26T07:20:55;8.00;;;3.20;;
77202;SDS011;66327;50.096;8.498;2024-02-26T07:23:22;9.45;;;3.65;;
77202;SDS011;66327;50.096;8.498;2024-02-26T07:25:48;6.43;;;3.08;;
77202;SDS011;66327;50.096;8.498;2024-02-26T07:28:19;7.70;;;3.67;;
77202;SDS011;66327;50.096;8.498;2024-02-26T07:30:46;7.43;;;3.25;;
77202;SDS011;66327;50.096;8.498;2024-02-26T07:33:12;7.95;;;3.30;;
77202;SDS011;66327;50.096;8.498;2024-02-26T07:35:38;9.32;;;3.97;;
77202;SDS011;66327;50.096;8.498;2024-02-26T07:38:05;6.30;;;2.78;;
77202;SDS011;66327;50.096;8.498;2024-02-26T07:40:31;6.93;;;3.22;;
77202;SDS011;66327;50.096;8.498;2024-02-26T07:42:57;6.65;;;3.15;;
77202;SDS011;66327;50.096;8.498;2024-02-26T07:45:23;6.75;;;3.08;;
77202;SDS011;66327;50.096;8.498;2024-02-26T07:47:50;6.00;;;2.88;;
77202;SDS011;66327;50.096;8.498;2024-02-26T07:50:18;5.18;;;2.75;;
77202;SDS011;66327;50.096;8.498;2024-02-26T07:52:45;9.23;;;3.30;;
77202;SDS011;66327;50.096;8.498;2024-02-26T07:55:11;6.82;;;3.08;;
77202;SDS011;66327;50.096;8.498;2024-02-26T07:57:40;6.25;;;3.40;;
77202;SDS011;66327;50.096;8.498;2024-02-26T08:00:07;7.07;;;3.40;;
77202;SDS011;66327;50.096;8.498;2024-02-26T08:05:01;5.90;;;3.05;;
77202;SDS011;66327;50.096;8.498;2024-02-26T08:07:28;4.90;;;2.65;;
77202;SDS011;66327;50.096;8.498;2024-02-26T08:09:54;7.13;;;3.38;;
77202;SDS011;66327;50.096;8.498;2024-02-26T08:12:21;6.68;;;3.28;;
77202;SDS011;66327;50.096;8.498;2024-02-26T08:14:47;5.03;;;2.97;;
77202;SDS011;66327;50.096;8.498;2024-02-26T08:17:13;6.30;;;3.20;;
77202;SDS011;66327;50.096;8.498;2024-02-26T08:19:40;8.10;;;3.00;;
77202;SDS011;66327;50.096;8.498;2024-02-26T08:22:06;5.70;;;3.10;;
77202;SDS011;66327;50.096;8.498;2024-02-26T08:24:32;4.93;;;2.67;;
77202;SDS011;66327;50.096;8.498;2024-02-26T08:26:59;6.20;;;3.25;;
77202;SDS011;66327;50.096;8.498;2024-02-26T08:29:25;6.03;;;2.63;;
77202;SDS011;66327;50.096;8.498;2024-02-26T08:31:51;9.48;;;3.58;;
77202;SDS011;66327;50.096;8.498;2024-02-26T08:34:17;7.47;;;3.22;;
77202;SDS011;66327;50.096;8.498;2024-02-26T08:36:44;9.48;;;3.47;;
77202;SDS011;66327;50.096;8.498;2024-02-26T08:39:10;7.32;;;3.40;;
77202;SDS011;66327;50.096;8.498;2024-02-26T08:41:39;8.88;;;3.60;;
77202;SDS011;66327;50.096;8.498;2024-02-26T08:44:05;7.38;;;2.67;;
77202;SDS011;66327;50.096;8.498;2024-02-26T08:46:32;12.00;;;3.30;;
77202;SDS011;66327;50.096;8.498;2024-02-26T08:48:58;5.95;;;3.10;;
77202;SDS011;66327;50.096;8.498;2024-02-26T08:51:25;8.40;;;3.28;;
77202;SDS011;66327;50.096;8.498;2024-02-26T08:53:51;7.85;;;3.65;;
77202;SDS011;66327;50.096;8.498;2024-02-26T08:56:18;7.80;;;3.30;;
77202;SDS011;66327;50.096;8.498;2024-02-26T08:58:45;6.20;;;3.20;;
77202;SDS011;66327;50.096;8.498;2024-02-26T09:01:14;9.07;;;3.40;;
77202;SDS011;66327;50.096;8.498;2024-02-26T09:03:41;7.03;;;3.63;;
77202;SDS011;66327;50.096;8.498;2024-02-26T09:06:07;9.68;;;4.30;;
77202;SDS011;66327;50.096;8.498;2024-02-26T09:08:34;8.25;;;3.40;;
77202;SDS011;66327;50.096;8.498;2024-02-26T09:11:02;7.50;;;3.50;;
77202;SDS011;66327;50.096;8.498;2024-02-26T09:13:29;8.65;;;3.05;;
77202;SDS011;66327;50.096;8.498;2024-02-26T09:15:55;5.13;;;3.05;;
77202;SDS011;66327;50.096;8.498;2024-02-26T09:18:22;9.35;;;3.67;;
77202;SDS011;66327;50.096;8.498;2024-02-26T09:20:48;7.75;;;3.15;;
77202;SDS011;66327;50.096;8.498;2024-02-26T09:23:16;7.63;;;3.42;;
77202;SDS011;66327;50.096;8.498;2024-02-26T09:25:42;7.18;;;3.60;;
77202;SDS011;66327;50.096;8.498;2024-02-26T09:28:09;8.18;;;3.70;;
77202;SDS011;66327;50.096;8.498;2024-02-26T09:30:35;7.68;;;3.85;;
77202;SDS011;66327;50.096;8.498;2024-02-26T09:33:01;7.68;;;3.35;;
77202;SDS011;66327;50.096;8.498;2024-02-26T09:35:28;8.20;;;3.45;;
77202;SDS011;66327;50.096;8.498;2024-02-26T09:37:55;6.72;;;3.30;;
77202;SDS011;66327;50.096;8.498;2024-02-26T09:40:21;6.03;;;2.97;;
77202;SDS011;66327;50.096;8.498;2024-02-26T09:42:48;8.23;;;3.58;;
77202;SDS011;66327;50.096;8.498;2024-02-26T09:45:18;6.50;;;3.42;;
77202;SDS011;66327;50.096;8.498;2024-02-26T09:47:46;8.35;;;3.95;;
77202;SDS011;66327;50.096;8.498;2024-02-26T09:52:41;11.80;;;3.35;;
77202;SDS011;66327;50.096;8.498;2024-02-26T09:55:07;4.28;;;2.63;;
77202;SDS011;66327;50.096;8.498;2024-02-26T09:57:34;6.70;;;3.50;;
77202;SDS011;66327;50.096;8.498;2024-02-26T10:00:02;7.28;;;3.05;;
77202;SDS011;66327;50.096;8.498;2024-02-26T10:02:32;6.90;;;3.38;;
77202;SDS011;66327;50.096;8.498;2024-02-26T10:04:59;8.10;;;4.00;;
77202;SDS011;66327;50.096;8.498;2024-02-26T10:07:27;7.93;;;3.38;;
77202;SDS011;66327;50.096;8.498;2024-02-26T10:09:55;7.85;;;4.25;;
77202;SDS011;66327;50.096;8.498;2024-02-26T10:12:22;9.30;;;4.22;;
77202;SDS011;66327;50.096;8.498;2024-02-26T10:14:49;9.52;;;4.32;;
77202;SDS011;66327;50.096;8.498;2024-02-26T10:17:16;9.68;;;3.92;;
77202;SDS011;66327;50.096;8.498;2024-02-26T10:19:42;10.70;;;4.50;;
77202;SDS011;66327;50.096;8.498;2024-02-26T10:22:09;7.97;;;3.85;;
77202;SDS011;66327;50.096;8.498;2024-02-26T10:24:35;9.02;;;4.55;;
77202;SDS011;66327;50.096;8.498;2024-02-26T10:27:02;8.45;;;3.75;;
77202;SDS011;66327;50.096;8.498;2024-02-26T10:29:29;9.00;;;4.25;;
77202;SDS011;66327;50.096;8.498;2024-02-26T10:31:55;10.57;;;4.28;;
77202;SDS011;66327;50.096;8.498;2024-02-26T10:34:22;10.38;;;4.63;;
77202;SDS011;66327;50.096;8.498;2024-02-26T10:36:49;9.55;;;4.15;;
77202;SDS011;66327;50.096;8.498;2024-02-26T10:39:19;8.02;;;3.92;;
77202;SDS011;66327;50.096;8.498;2024-02-26T10:41:46;8.82;;;4.30;;
77202;SDS011;66327;50.096;8.498;2024-02-26T10:44:13;8.15;;;4.25;;
77202;SDS011;66327;50.096;8.498;2024-02-26T10:46:44;7.65;;;4.07;;
77202;SDS011;66327;50.096;8.498;2024-02-26T10:49:15;7.80;;;4.00;;
77202;SDS011;66327;50.096;8.498;2024-02-26T10:51:56;6.00;;;3.42;;
77202;SDS011;66327;50.096;8.498;2024-02-26T10:54:26;7.43;;;3.80;;
77202;SDS011;66327;50.096;8.498;2024-02-26T10:56:54;6.20;;;2.80;;
77202;SDS011;66327;50.096;8.498;2024-02-26T10:59:22;6.95;;;3.70;;
77202;SDS011;66327;50.096;8.498;2024-02-26T11:01:48;7.78;;;4.22;;
77202;SDS011;66327;50.096;8.498;2024-02-26T11:04:16;7.45;;;4.25;;
77202;SDS011;66327;50.096;8.498;2024-02-26T11:06:44;4.78;;;3.00;;
77202;SDS011;66327;50.096;8.498;2024-02-26T11:11:39;7.53;;;3.50;;
77202;SDS011;66327;50.096;8.498;2024-02-26T11:14:06;6.10;;;3.20;;
77202;SDS011;66327;50.096;8.498;2024-02-26T11:16:34;7.70;;;3.38;;
77202;SDS011;66327;50.096;8.498;2024-02-26T11:19:01;8.50;;;3.83;;
77202;SDS011;66327;50.096;8.498;2024-02-26T11:21:28;6.13;;;3.28;;
77202;SDS011;66327;50.096;8.498;2024-02-26T11:24:07;7.22;;;3.25;;
77202;SDS011;66327;50.096;8.498;2024-02-26T11:26:34;8.23;;;4.03;;
77202;SDS011;66327;50.096;8.498;2024-02-26T11:29:02;10.05;;;4.13;;
77202;SDS011;66327;50.096;8.498;2024-02-26T11:31:29;6.25;;;3.33;;
77202;SDS011;66327;50.096;8.498;2024-02-26T11:33:55;7.30;;;3.75;;
77202;SDS011;66327;50.096;8.498;2024-02-26T11:36:23;8.15;;;3.42;;
77202;SDS011;66327;50.096;8.498;2024-02-26T11:38:50;6.43;;;3.15;;
77202;SDS011;66327;50.096;8.498;2024-02-26T11:41:18;3.63;;;2.05;;
77202;SDS011;66327;50.096;8.498;2024-02-26T11:43:51;7.90;;;3.70;;
77202;SDS011;66327;50.096;8.498;2024-02-26T11:48:45;9.68;;;4.50;;
77202;SDS011;66327;50.096;8.498;2024-02-26T11:51:11;7.00;;;3.35;;
77202;SDS011;66327;50.096;8.498;2024-02-26T11:53:45;9.20;;;3.85;;
77202;SDS011;66327;50.096;8.498;2024-02-26T11:58:45;7.45;;;3.38;;
77202;SDS011;66327;50.096;8.498;2024-02-26T12:03:57;7.15;;;3.50;;
77202;SDS011;66327;50.096;8.498;2024-02-26T12:06:24;7.30;;;3.42;;
77202;SDS011;66327;50.096;8.498;2024-02-26T12:08:51;6.07;;;3.58;;
77202;SDS011;66327;50.096;8.498;2024-02-26T12:11:18;6.80;;;3.35;;
77202;SDS011;66327;50.096;8.498;2024-02-26T12:13:46;8.38;;;3.85;;
77202;SDS011;66327;50.096;8.498;2024-02-26T12:16:13;7.03;;;3.90;;
77202;SDS011;66327;50.096;8.498;2024-02-26T12:19:00;7.05;;;3.90;;
77202;SDS011;66327;50.096;8.498;2024-02-26T12:21:26;6.65;;;3.70;;
77202;SDS011;66327;50.096;8.498;2024-02-26T12:23:53;5.65;;;3.28;;
77202;SDS011;66327;50.096;8.498;2024-02-26T12:26:20;7.60;;;3.60;;
77202;SDS011;66327;50.096;8.498;2024-02-26T12:28:46;6.78;;;3.70;;
77202;SDS011;66327;50.096;8.498;2024-02-26T12:31:12;6.68;;;3.60;;
77202;SDS011;66327;50.096;8.498;2024-02-26T12:33:39;6.43;;;3.47;;
77202;SDS011;66327;50.096;8.498;2024-02-26T12:36:05;8.73;;;3.95;;
77202;SDS011;66327;50.096;8.498;2024-02-26T12:38:32;8.98;;;3.33;;
77202;SDS011;66327;50.096;8.498;2024-02-26T12:40:58;9.50;;;3.97;;
77202;SDS011;66327;50.096;8.498;2024-02-26T12:43:25;8.23;;;3.70;;
77202;SDS011;66327;50.096;8.498;2024-02-26T12:45:52;7.70;;;3.85;;
77202;SDS011;66327;50.096;8.498;2024-02-26T12:48:19;7.30;;;3.75;;
77202;SDS011;66327;50.096;8.498;2024-02-26T12:50:46;6.82;;;3.90;;
77202;SDS011;66327;50.096;8.498;2024-02-26T12:53:15;7.93;;;3.60;;
77202;SDS011;66327;50.096;8.498;2024-02-26T12:55:42;8.18;;;3.83;;
77202;SDS011;66327;50.096;8.498;2024-02-26T12:58:09;5.90;;;3.58;;
77202;SDS011;66327;50.096;8.498;2024-02-26T13:00:35;6.75;;;3.42;;
77202;SDS011;66327;50.096;8.498;2024-02-26T13:03:02;8.15;;;3.47;;
77202;SDS011;66327;50.096;8.498;2024-02-26T13:05:29;6.65;;;3.85;;
77202;SDS011;66327;50.096;8.498;2024-02-26T13:07:55;7.40;;;3.88;;
77202;SDS011;66327;50.096;8.498;2024-02-26T13:10:21;6.30;;;3.17;;
77202;SDS011;66327;50.096;8.498;2024-02-26T13:12:50;5.45;;;3.50;;
77202;SDS011;66327;50.096;8.498;2024-02-26T13:15:17;7.47;;;3.60;;
77202;SDS011;66327;50.096;8.498;2024-02-26T13:17:44;6.13;;;3.13;;
77202;SDS011;66327;50.096;8.498;2024-02-26T13:20:11;9.52;;;3.55;;
77202;SDS011;66327;50.096;8.498;2024-02-26T13:22:37;6.55;;;3.53;;
77202;SDS011;66327;50.096;8.498;2024-02-26T13:25:04;5.88;;;3.22;;
77202;SDS011;66327;50.096;8.498;2024-02-26T13:27:30;8.45;;;3.28;;
77202;SDS011;66327;50.096;8.498;2024-02-26T13:32:29;5.53;;;3.35;;
77202;SDS011;66327;50.096;8.498;2024-02-26T13:35:10;7.38;;;3.58;;
77202;SDS011;66327;50.096;8.498;2024-02-26T13:37:37;6.32;;;3.10;;
77202;SDS011;66327;50.096;8.498;2024-02-26T13:40:07;7.25;;;2.80;;
77202;SDS011;66327;50.096;8.498;2024-02-26T13:42:38;7.40;;;3.42;;
77202;SDS011;66327;50.096;8.498;2024-02-26T13:45:05;5.22;;;3.10;;
77202;SDS011;66327;50.096;8.498;2024-02-26T13:47:35;7.20;;;3.03;;
77202;SDS011;66327;50.096;8.498;2024-02-26T13:50:01;4.63;;;2.65;;
77202;SDS011;66327;50.096;8.498;2024-02-26T13:52:28;7.13;;;3.38;;
77202;SDS011;66327;50.096;8.498;2024-02-26T13:54:54;6.25;;;3.33;;
77202;SDS011;66327;50.096;8.498;2024-02-26T13:57:21;7.38;;;3.40;;
77202;SDS011;66327;50.096;8.498;2024-02-26T13:59:47;7.75;;;3.42;;
77202;SDS011;66327;50.096;8.498;2024-02-26T14:02:13;5.55;;;2.97;;
77202;SDS011;66327;50.096;8.498;2024-02-26T14:04:40;6.53;;;3.47;;
77202;SDS011;66327;50.096;8.498;2024-02-26T14:07:06;6.85;;;3.05;;
77202;SDS011;66327;50.096;8.498;2024-02-26T14:09:34;6.07;;;3.10;;
77202;SDS011;66327;50.096;8.498;2024-02-26T14:14:41;4.72;;;2.42;;
77202;SDS011;66327;50.096;8.498;2024-02-26T14:17:08;7.00;;;3.08;;
77202;SDS011;66327;50.096;8.498;2024-02-26T14:19:34;6.75;;;3.63;;
77202;SDS011;66327;50.096;8.498;2024-02-26T14:22:01;6.32;;;3.13;;
77202;SDS011;66327;50.096;8.498;2024-02-26T14:24:27;6.45;;;2.83;;
77202;SDS011;66327;50.096;8.498;2024-02-26T14:26:54;6.55;;;3.33;;
77202;SDS011;66327;50.096;8.498;2024-02-26T14:29:20;6.15;;;3.08;;
77202;SDS011;66327;50.096;8.498;2024-02-26T14:31:47;5.97;;;3.28;;
77202;SDS011;66327;50.096;8.498;2024-02-26T14:34:14;6.25;;;2.85;;
77202;SDS011;66327;50.096;8.498;2024-02-26T14:36:40;6.50;;;3.22;;
77202;SDS011;66327;50.096;8.498;2024-02-26T14:39:07;6.30;;;2.85;;
77202;SDS011;66327;50.096;8.498;2024-02-26T14:41:33;5.63;;;2.72;;
77202;SDS011;66327;50.096;8.498;2024-02-26T14:43:59;5.88;;;2.50;;
77202;SDS011;66327;50.096;8.498;2024-02-26T14:46:26;7.13;;;2.90;;
77202;SDS011;66327;50.096;8.498;2024-02-26T14:48:52;6.03;;;2.83;;
77202;SDS011;66327;50.096;8.498;2024-02-26T14:51:19;6.22;;;2.97;;
77202;SDS011;66327;50.096;8.498;2024-02-26T14:53:45;6.00;;;3.03;;
77202;SDS011;66327;50.096;8.498;2024-02-26T14:56:12;7.38;;;3.15;;
77202;SDS011;66327;50.096;8.498;2024-02-26T14:58:38;5.63;;;2.90;;
77202;SDS011;66327;50.096;8.498;2024-02-26T15:01:05;5.50;;;3.05;;
77202;SDS011;66327;50.096;8.498;2024-02-26T15:03:32;5.53;;;2.78;;
77202;SDS011;66327;50.096;8.498;2024-02-26T15:05:58;6.47;;;2.90;;
77202;SDS011;66327;50.096;8.498;2024-02-26T15:08:25;6.82;;;3.03;;